Terminal Aerodrome Forecast
Issued by NWS Miami, FL

Home | Current Version | Previous Version | Text Only | Print | Product List | Glossary On
Versions: 1 2 3 4 5 6 7 8 9 10 11 12 13 14 15 16 17 18 19 20 21 22 23 24 25 26 27
000
FTUS42 KMFL 230806 AAA
TAFFLL
TAF AMD
KFLL 230806Z 2308/2406 14013KT P6SM VCSH SCT015 BKN035 OVC120
      TEMPO 2308/2310 2SM +RA SCT005 BKN015 OVC025
     FM231000 14011KT 5SM SHRA VCTS SCT020CB BKN035 OVC050
     FM232300 24005KT P6SM VCSH FEW015 SCT030 BKN120=

USA.gov is the U.S. government's official web portal to all federal, state and local government web resources and services.